sensor_id;sensor_type;location;lat;lon;timestamp;pressure;altitude;pressure_sealevel;temperature;humidity
56241;BME280;42155;53.096;23.226;2023-09-07T00:00:03;100983.75;;;15.52;78.95
56241;BME280;42155;53.096;23.226;2023-09-07T00:02:04;100985.03;;;15.48;79.07
56241;BME280;42155;53.096;23.226;2023-09-07T00:04:04;100984.88;;;15.50;79.03
56241;BME280;42155;53.096;23.226;2023-09-07T00:06:04;100990.22;;;15.50;79.17
56241;BME280;42155;53.096;23.226;2023-09-07T00:08:05;100985.59;;;15.52;79.12
56241;BME280;42155;53.096;23.226;2023-09-07T00:10:05;100991.22;;;15.49;79.26
56241;BME280;42155;53.096;23.226;2023-09-07T00:12:06;100973.13;;;15.41;79.40
56241;BME280;42155;53.096;23.226;2023-09-07T00:14:06;100983.75;;;15.52;79.34
56241;BME280;42155;53.096;23.226;2023-09-07T00:16:07;100982.34;;;15.48;78.89
56241;BME280;42155;53.096;23.226;2023-09-07T00:18:07;100979.06;;;15.45;78.59
56241;BME280;42155;53.096;23.226;2023-09-07T00:20:08;100998.25;;;15.50;78.91
56241;BME280;42155;53.096;23.226;2023-09-07T00:22:08;100998.41;;;15.48;78.81
56241;BME280;42155;53.096;23.226;2023-09-07T00:24:08;100996.13;;;15.44;78.87
56241;BME280;42155;53.096;23.226;2023-09-07T00:26:09;100986.66;;;15.40;79.09
56241;BME280;42155;53.096;23.226;2023-09-07T00:28:09;100999.25;;;15.49;79.83
56241;BME280;42155;53.096;23.226;2023-09-07T00:30:10;100976.06;;;15.38;79.90
56241;BME280;42155;53.096;23.226;2023-09-07T00:32:10;100987.09;;;15.45;79.86
56241;BME280;42155;53.096;23.226;2023-09-07T00:34:10;100998.41;;;15.48;79.35
56241;BME280;42155;53.096;23.226;2023-09-07T00:36:11;100975.22;;;15.38;79.44
56241;BME280;42155;53.096;23.226;2023-09-07T00:38:11;100995.13;;;15.45;79.59
56241;BME280;42155;53.096;23.226;2023-09-07T00:40:11;100984.94;;;15.39;79.73
56241;BME280;42155;53.096;23.226;2023-09-07T00:42:12;100998.41;;;15.48;80.33
56241;BME280;42155;53.096;23.226;2023-09-07T00:44:12;100982.00;;;15.42;80.32
56241;BME280;42155;53.096;23.226;2023-09-07T00:46:12;100988.53;;;15.49;80.06
56241;BME280;42155;53.096;23.226;2023-09-07T00:48:15;101003.53;;;15.61;79.98
56241;BME280;42155;53.096;23.226;2023-09-07T00:50:15;100998.19;;;15.61;79.34
56241;BME280;42155;53.096;23.226;2023-09-07T00:52:17;100999.31;;;15.59;79.36
56241;BME280;42155;53.096;23.226;2023-09-07T00:54:18;101012.06;;;15.66;79.73
56241;BME280;42155;53.096;23.226;2023-09-07T00:56:19;101010.81;;;15.70;79.39
56241;BME280;42155;53.096;23.226;2023-09-07T00:58:21;100999.66;;;15.65;79.43
56241;BME280;42155;53.096;23.226;2023-09-07T01:00:22;101005.59;;;15.69;79.23
56241;BME280;42155;53.096;23.226;2023-09-07T01:02:22;101022.75;;;15.66;79.66
56241;BME280;42155;53.096;23.226;2023-09-07T01:04:22;101014.97;;;15.63;79.22
56241;BME280;42155;53.096;23.226;2023-09-07T01:06:29;101035.66;;;15.61;79.37
56241;BME280;42155;53.096;23.226;2023-09-07T01:08:37;101017.44;;;15.55;79.42
56241;BME280;42155;53.096;23.226;2023-09-07T01:10:39;101002.56;;;15.41;79.53
56241;BME280;42155;53.096;23.226;2023-09-07T01:12:40;101022.59;;;15.47;79.55
56241;BME280;42155;53.096;23.226;2023-09-07T01:14:40;101025.41;;;15.45;79.42
56241;BME280;42155;53.096;23.226;2023-09-07T01:16:41;101024.56;;;15.45;79.26
56241;BME280;42155;53.096;23.226;2023-09-07T01:18:42;101024.28;;;15.48;79.18
56241;BME280;42155;53.096;23.226;2023-09-07T01:20:44;101017.13;;;15.48;79.24
56241;BME280;42155;53.096;23.226;2023-09-07T01:22:45;101026.69;;;15.51;79.92
56241;BME280;42155;53.096;23.226;2023-09-07T01:24:46;101010.19;;;15.46;80.52
56241;BME280;42155;53.096;23.226;2023-09-07T01:26:47;101022.06;;;15.64;80.95
56241;BME280;42155;53.096;23.226;2023-09-07T01:28:48;101020.22;;;15.65;80.37
56241;BME280;42155;53.096;23.226;2023-09-07T01:30:51;101025.31;;;15.68;80.29
56241;BME280;42155;53.096;23.226;2023-09-07T01:32:51;101017.00;;;15.50;80.19
56241;BME280;42155;53.096;23.226;2023-09-07T01:34:54;101022.06;;;15.64;79.92
56241;BME280;42155;53.096;23.226;2023-09-07T01:36:55;101028.09;;;15.66;80.15
56241;BME280;42155;53.096;23.226;2023-09-07T01:38:55;101030.69;;;15.68;80.19
56241;BME280;42155;53.096;23.226;2023-09-07T01:40:55;101026.63;;;15.73;80.58
56241;BME280;42155;53.096;23.226;2023-09-07T01:42:56;101032.69;;;15.75;80.41
56241;BME280;42155;53.096;23.226;2023-09-07T01:44:56;101021.97;;;15.75;80.04
56241;BME280;42155;53.096;23.226;2023-09-07T01:46:56;101005.75;;;15.56;80.19
56241;BME280;42155;53.096;23.226;2023-09-07T01:48:57;101031.72;;;15.76;80.87
56241;BME280;42155;53.096;23.226;2023-09-07T01:50:57;101025.38;;;15.77;80.45
56241;BME280;42155;53.096;23.226;2023-09-07T01:52:57;101030.44;;;15.81;80.36
56241;BME280;42155;53.096;23.226;2023-09-07T01:54:58;101033.88;;;15.83;80.39
56241;BME280;42155;53.096;23.226;2023-09-07T01:56:58;101031.19;;;15.83;80.48
56241;BME280;42155;53.096;23.226;2023-09-07T01:58:58;101035.81;;;15.81;80.40
56241;BME280;42155;53.096;23.226;2023-09-07T02:00:59;101027.47;;;15.74;80.81
56241;BME280;42155;53.096;23.226;2023-09-07T02:02:59;101032.19;;;15.82;80.91
56241;BME280;42155;53.096;23.226;2023-09-07T02:05:00;101029.94;;;15.87;80.92
56241;BME280;42155;53.096;23.226;2023-09-07T02:07:00;101030.19;;;15.84;81.04
56241;BME280;42155;53.096;23.226;2023-09-07T02:09:00;101029.66;;;15.90;81.21
56241;BME280;42155;53.096;23.226;2023-09-07T02:11:01;101035.75;;;15.92;81.17
56241;BME280;42155;53.096;23.226;2023-09-07T02:13:01;101029.41;;;15.93;81.52
56241;BME280;42155;53.096;23.226;2023-09-07T02:15:03;101033.09;;;15.92;81.19
56241;BME280;42155;53.096;23.226;2023-09-07T02:17:04;101038.69;;;15.89;81.74
56241;BME280;42155;53.096;23.226;2023-09-07T02:19:05;101043.19;;;15.88;81.72
56241;BME280;42155;53.096;23.226;2023-09-07T02:21:06;101031.88;;;15.85;81.98
56241;BME280;42155;53.096;23.226;2023-09-07T02:23:06;101039.66;;;15.88;82.03
56241;BME280;42155;53.096;23.226;2023-09-07T02:25:06;101019.63;;;15.82;82.32
56241;BME280;42155;53.096;23.226;2023-09-07T02:27:07;101039.59;;;15.99;82.35
56241;BME280;42155;53.096;23.226;2023-09-07T02:29:07;101044.69;;;16.02;81.86
56241;BME280;42155;53.096;23.226;2023-09-07T02:31:07;101044.69;;;16.02;81.97
56241;BME280;42155;53.096;23.226;2023-09-07T02:33:08;101029.66;;;15.90;82.10
56241;BME280;42155;53.096;23.226;2023-09-07T02:35:08;101049.44;;;15.98;82.07
56241;BME280;42155;53.096;23.226;2023-09-07T02:37:09;101036.00;;;15.89;81.75
56241;BME280;42155;53.096;23.226;2023-09-07T02:39:09;101047.91;;;15.96;81.71
56241;BME280;42155;53.096;23.226;2023-09-07T02:41:09;101055.94;;;15.96;81.92
56241;BME280;42155;53.096;23.226;2023-09-07T02:43:10;101050.59;;;15.96;81.74
56241;BME280;42155;53.096;23.226;2023-09-07T02:45:11;101053.25;;;15.96;81.77
56241;BME280;42155;53.096;23.226;2023-09-07T02:47:11;101049.59;;;15.97;82.14
56241;BME280;42155;53.096;23.226;2023-09-07T02:49:12;101047.16;;;15.94;82.06
56241;BME280;42155;53.096;23.226;2023-09-07T02:51:12;101030.34;;;15.82;81.79
56241;BME280;42155;53.096;23.226;2023-09-07T02:53:12;101058.16;;;15.91;81.59
56241;BME280;42155;53.096;23.226;2023-09-07T02:55:13;101045.63;;;15.91;81.67
56241;BME280;42155;53.096;23.226;2023-09-07T02:57:13;101040.13;;;15.93;81.84
56241;BME280;42155;53.096;23.226;2023-09-07T02:59:13;101043.25;;;15.98;81.87
56241;BME280;42155;53.096;23.226;2023-09-07T03:01:14;101041.56;;;15.97;81.89
56241;BME280;42155;53.096;23.226;2023-09-07T03:03:14;101050.88;;;16.02;81.74
56241;BME280;42155;53.096;23.226;2023-09-07T03:05:16;101056.13;;;16.04;81.73
56241;BME280;42155;53.096;23.226;2023-09-07T03:07:16;101046.53;;;16.01;81.32
56241;BME280;42155;53.096;23.226;2023-09-07T03:09:16;101055.66;;;15.99;81.15
56241;BME280;42155;53.096;23.226;2023-09-07T03:11:17;101046.13;;;15.85;81.09
56241;BME280;42155;53.096;23.226;2023-09-07T03:13:17;101054.03;;;15.87;80.96
56241;BME280;42155;53.096;23.226;2023-09-07T03:15:17;101053.59;;;15.82;81.50
56241;BME280;42155;53.096;23.226;2023-09-07T03:17:18;101035.78;;;15.60;81.81
56241;BME280;42155;53.096;23.226;2023-09-07T03:19:18;101066.53;;;15.76;81.49
56241;BME280;42155;53.096;23.226;2023-09-07T03:21:19;101067.59;;;15.74;81.26
56241;BME280;42155;53.096;23.226;2023-09-07T03:23:19;101063.34;;;15.71;80.82
56241;BME280;42155;53.096;23.226;2023-09-07T03:25:19;101056.59;;;15.67;80.55
56241;BME280;42155;53.096;23.226;2023-09-07T03:27:20;101069.22;;;15.65;80.64
56241;BME280;42155;53.096;23.226;2023-09-07T03:29:20;101063.16;;;15.63;80.74
56241;BME280;42155;53.096;23.226;2023-09-07T03:31:20;101063.88;;;15.65;80.24
56241;BME280;42155;53.096;23.226;2023-09-07T03:33:21;101060.00;;;15.58;80.39
56241;BME280;42155;53.096;23.226;2023-09-07T03:35:22;101063.19;;;15.52;80.23
56241;BME280;42155;53.096;23.226;2023-09-07T03:37:22;101061.47;;;15.51;80.71
56241;BME280;42155;53.096;23.226;2023-09-07T03:39:22;101069.38;;;15.52;80.86
56241;BME280;42155;53.096;23.226;2023-09-07T03:41:23;101061.28;;;15.43;80.72
56241;BME280;42155;53.096;23.226;2023-09-07T03:43:23;101077.53;;;15.51;80.60
56241;BME280;42155;53.096;23.226;2023-09-07T03:45:23;101079.50;;;15.49;80.86
56241;BME280;42155;53.096;23.226;2023-09-07T03:47:24;101054.84;;;15.34;80.85
56241;BME280;42155;53.096;23.226;2023-09-07T03:49:24;101067.59;;;15.42;80.75
56241;BME280;42155;53.096;23.226;2023-09-07T03:51:24;101075.25;;;15.46;80.73
56241;BME280;42155;53.096;23.226;2023-09-07T03:53:25;101085.44;;;15.52;80.94
56241;BME280;42155;53.096;23.226;2023-09-07T03:55:25;101090.53;;;15.56;80.91
56241;BME280;42155;53.096;23.226;2023-09-07T03:57:26;101087.47;;;15.60;80.85
56241;BME280;42155;53.096;23.226;2023-09-07T03:59:27;101087.22;;;15.63;80.46
56241;BME280;42155;53.096;23.226;2023-09-07T04:01:28;101089.78;;;15.65;80.80
56241;BME280;42155;53.096;23.226;2023-09-07T04:03:28;101085.28;;;15.65;80.77
56241;BME280;42155;53.096;23.226;2023-09-07T04:05:28;101078.25;;;15.64;81.06
56241;BME280;42155;53.096;23.226;2023-09-07T04:07:29;101081.38;;;15.69;81.20
56241;BME280;42155;53.096;23.226;2023-09-07T04:09:29;101060.97;;;15.57;81.08
56241;BME280;42155;53.096;23.226;2023-09-07T04:11:30;101076.63;;;15.73;80.99
56241;BME280;42155;53.096;23.226;2023-09-07T04:13:30;101081.31;;;15.81;80.84
56241;BME280;42155;53.096;23.226;2023-09-07T04:15:30;101090.69;;;15.86;80.99
56241;BME280;42155;53.096;23.226;2023-09-07T04:17:31;101086.03;;;15.88;80.83
56241;BME280;42155;53.096;23.226;2023-09-07T04:19:31;101081.50;;;15.89;80.97
56241;BME280;42155;53.096;23.226;2023-09-07T04:21:31;101086.69;;;16.01;80.60
56241;BME280;42155;53.096;23.226;2023-09-07T04:23:32;101076.97;;;16.00;80.46
56241;BME280;42155;53.096;23.226;2023-09-07T04:25:32;101088.44;;;16.12;80.17
56241;BME280;42155;53.096;23.226;2023-09-07T04:27:32;101087.63;;;16.21;79.97
56241;BME280;42155;53.096;23.226;2023-09-07T04:29:33;101093.19;;;16.29;79.96
56241;BME280;42155;53.096;23.226;2023-09-07T04:31:33;101091.94;;;16.34;79.94
56241;BME280;42155;53.096;23.226;2023-09-07T04:33:34;101097.34;;;16.43;79.55
56241;BME280;42155;53.096;23.226;2023-09-07T04:35:34;101098.66;;;16.49;79.55
56241;BME280;42155;53.096;23.226;2023-09-07T04:37:34;101100.28;;;16.71;78.94
56241;BME280;42155;53.096;23.226;2023-09-07T04:39:35;101102.13;;;17.01;77.79
56241;BME280;42155;53.096;23.226;2023-09-07T04:41:35;101082.66;;;17.09;77.29
56241;BME280;42155;53.096;23.226;2023-09-07T04:43:36;101106.41;;;17.42;76.39
56241;BME280;42155;53.096;23.226;2023-09-07T04:45:45;101099.41;;;17.70;76.09
56241;BME280;42155;53.096;23.226;2023-09-07T04:47:46;101056.00;;;17.65;75.11
56241;BME280;42155;53.096;23.226;2023-09-07T04:49:49;101104.44;;;18.22;74.18
56241;BME280;42155;53.096;23.226;2023-09-07T04:51:52;101102.66;;;18.50;73.35
56241;BME280;42155;53.096;23.226;2023-09-07T04:53:53;101094.38;;;18.71;72.41
56241;BME280;42155;53.096;23.226;2023-09-07T04:55:53;101096.34;;;19.06;71.43
56241;BME280;42155;53.096;23.226;2023-09-07T04:57:53;101099.38;;;19.39;70.70
56241;BME280;42155;53.096;23.226;2023-09-07T04:59:54;101095.63;;;19.67;69.87
56241;BME280;42155;53.096;23.226;2023-09-07T05:01:59;101097.47;;;20.02;68.95
56241;BME280;42155;53.096;23.226;2023-09-07T05:03:59;101099.84;;;20.31;67.84
56241;BME280;42155;53.096;23.226;2023-09-07T05:06:00;101095.34;;;20.66;67.14
56241;BME280;42155;53.096;23.226;2023-09-07T05:08:00;101100.59;;;21.18;65.78
56241;BME280;42155;53.096;23.226;2023-09-07T05:10:01;101098.69;;;21.94;63.25
56241;BME280;42155;53.096;23.226;2023-09-07T05:12:01;101090.44;;;22.75;61.24
56241;BME280;42155;53.096;23.226;2023-09-07T05:14:02;101088.97;;;23.58;58.37
56241;BME280;42155;53.096;23.226;2023-09-07T05:16:02;101090.31;;;24.82;55.76
56241;BME280;42155;53.096;23.226;2023-09-07T05:18:03;101091.69;;;26.08;52.27
56241;BME280;42155;53.096;23.226;2023-09-07T05:20:03;101090.69;;;27.26;50.05
56241;BME280;42155;53.096;23.226;2023-09-07T05:22:04;101094.75;;;28.23;48.06
56241;BME280;42155;53.096;23.226;2023-09-07T05:24:04;101091.19;;;29.14;46.08
56241;BME280;42155;53.096;23.226;2023-09-07T05:26:05;101086.91;;;30.13;43.54
56241;BME280;42155;53.096;23.226;2023-09-07T05:28:05;101089.53;;;31.18;42.06
56241;BME280;42155;53.096;23.226;2023-09-07T05:30:06;101086.97;;;32.42;39.81
56241;BME280;42155;53.096;23.226;2023-09-07T05:32:06;101074.00;;;33.47;37.80
56241;BME280;42155;53.096;23.226;2023-09-07T05:34:06;101081.16;;;34.32;36.21
56241;BME280;42155;53.096;23.226;2023-09-07T05:36:07;101086.75;;;34.98;35.61
56241;BME280;42155;53.096;23.226;2023-09-07T05:38:08;101093.44;;;35.83;33.85
56241;BME280;42155;53.096;23.226;2023-09-07T05:40:08;101088.56;;;36.37;33.15
56241;BME280;42155;53.096;23.226;2023-09-07T05:42:09;101094.50;;;36.14;32.87
56241;BME280;42155;53.096;23.226;2023-09-07T05:44:09;101088.25;;;36.29;32.09
56241;BME280;42155;53.096;23.226;2023-09-07T05:46:10;101084.31;;;36.67;31.82
56241;BME280;42155;53.096;23.226;2023-09-07T05:48:10;101074.28;;;37.18;30.83
56241;BME280;42155;53.096;23.226;2023-09-07T05:50:10;101091.78;;;37.75;30.54
56241;BME280;42155;53.096;23.226;2023-09-07T05:52:11;101098.41;;;38.51;29.27
56241;BME280;42155;53.096;23.226;2023-09-07T05:54:11;101097.16;;;39.37;28.83
56241;BME280;42155;53.096;23.226;2023-09-07T05:56:11;101095.25;;;40.01;27.80
56241;BME280;42155;53.096;23.226;2023-09-07T05:58:12;101098.41;;;40.47;27.02
56241;BME280;42155;53.096;23.226;2023-09-07T06:00:13;101101.47;;;40.93;26.32
56241;BME280;42155;53.096;23.226;2023-09-07T06:02:13;101097.78;;;40.55;26.12
56241;BME280;42155;53.096;23.226;2023-09-07T06:04:13;101096.41;;;40.53;26.32
56241;BME280;42155;53.096;23.226;2023-09-07T06:06:14;101082.03;;;40.88;25.66
56241;BME280;42155;53.096;23.226;2023-09-07T06:08:14;101095.03;;;41.55;25.83
56241;BME280;42155;53.096;23.226;2023-09-07T06:10:15;101084.69;;;42.07;24.89
56241;BME280;42155;53.096;23.226;2023-09-07T06:12:15;101085.13;;;42.69;24.31
56241;BME280;42155;53.096;23.226;2023-09-07T06:14:16;101095.47;;;42.82;23.42
56241;BME280;42155;53.096;23.226;2023-09-07T06:16:16;101085.06;;;42.14;24.24
56241;BME280;42155;53.096;23.226;2023-09-07T06:18:16;101087.97;;;42.09;24.54
56241;BME280;42155;53.096;23.226;2023-09-07T06:20:17;101087.59;;;42.57;23.87
56241;BME280;42155;53.096;23.226;2023-09-07T06:22:17;101090.09;;;42.72;23.89
56241;BME280;42155;53.096;23.226;2023-09-07T06:24:18;101095.56;;;42.50;23.77
56241;BME280;42155;53.096;23.226;2023-09-07T06:26:18;101087.31;;;42.72;23.35
56241;BME280;42155;53.096;23.226;2023-09-07T06:28:18;101084.28;;;43.32;23.11
56241;BME280;42155;53.096;23.226;2023-09-07T06:30:19;101088.03;;;43.72;22.51
56241;BME280;42155;53.096;23.226;2023-09-07T06:32:19;101091.19;;;42.85;22.99
56241;BME280;42155;53.096;23.226;2023-09-07T06:34:19;101088.97;;;41.85;23.82
56241;BME280;42155;53.096;23.226;2023-09-07T06:36:21;101096.56;;;39.79;25.82
56241;BME280;42155;53.096;23.226;2023-09-07T06:38:21;101100.59;;;37.21;28.17
56241;BME280;42155;53.096;23.226;2023-09-07T06:40:22;101087.75;;;34.69;32.05
56241;BME280;42155;53.096;23.226;2023-09-07T06:42:22;101101.56;;;33.97;33.65
56241;BME280;42155;53.096;23.226;2023-09-07T06:44:22;101097.88;;;33.58;34.38
56241;BME280;42155;53.096;23.226;2023-09-07T06:46:23;101099.63;;;33.35;35.08
56241;BME280;42155;53.096;23.226;2023-09-07T06:48:23;101096.47;;;32.63;34.80
56241;BME280;42155;53.096;23.226;2023-09-07T06:50:23;101087.06;;;31.47;37.00
56241;BME280;42155;53.096;23.226;2023-09-07T06:52:24;101109.78;;;30.87;37.93
56241;BME280;42155;53.096;23.226;2023-09-07T06:54:24;101103.50;;;30.43;39.13
56241;BME280;42155;53.096;23.226;2023-09-07T06:56:25;101108.59;;;30.39;39.32
56241;BME280;42155;53.096;23.226;2023-09-07T06:58:25;101085.22;;;30.18;39.49
56241;BME280;42155;53.096;23.226;2023-09-07T07:00:25;101108.16;;;29.92;39.72
56241;BME280;42155;53.096;23.226;2023-09-07T07:02:26;101093.38;;;29.37;40.24
56241;BME280;42155;53.096;23.226;2023-09-07T07:04:26;101107.94;;;28.73;41.72
56241;BME280;42155;53.096;23.226;2023-09-07T07:06:26;101112.84;;;28.44;41.98
56241;BME280;42155;53.096;23.226;2023-09-07T07:08:27;101110.50;;;28.28;42.62
56241;BME280;42155;53.096;23.226;2023-09-07T07:10:27;101119.97;;;27.99;43.64
56241;BME280;42155;53.096;23.226;2023-09-07T07:12:28;101119.31;;;27.70;44.00
56241;BME280;42155;53.096;23.226;2023-09-07T07:14:28;101113.69;;;27.10;45.23
56241;BME280;42155;53.096;23.226;2023-09-07T07:16:28;101115.09;;;27.00;45.16
56241;BME280;42155;53.096;23.226;2023-09-07T07:18:29;101120.56;;;27.00;46.04
56241;BME280;42155;53.096;23.226;2023-09-07T07:20:29;101118.38;;;26.88;45.67
56241;BME280;42155;53.096;23.226;2023-09-07T07:22:29;101128.13;;;26.63;46.37
56241;BME280;42155;53.096;23.226;2023-09-07T07:24:30;101126.75;;;26.46;45.97
56241;BME280;42155;53.096;23.226;2023-09-07T07:26:30;101136.31;;;26.41;45.89
56241;BME280;42155;53.096;23.226;2023-09-07T07:28:30;101117.91;;;26.44;45.79
56241;BME280;42155;53.096;23.226;2023-09-07T07:30:35;101130.63;;;26.64;45.98
56241;BME280;42155;53.096;23.226;2023-09-07T07:32:35;101116.56;;;26.61;45.14
56241;BME280;42155;53.096;23.226;2023-09-07T07:34:36;101128.59;;;26.73;45.46
56241;BME280;42155;53.096;23.226;2023-09-07T07:36:36;101131.91;;;26.69;44.88
56241;BME280;42155;53.096;23.226;2023-09-07T07:38:36;101138.16;;;26.62;44.93
56241;BME280;42155;53.096;23.226;2023-09-07T07:40:36;101124.03;;;26.46;45.28
56241;BME280;42155;53.096;23.226;2023-09-07T07:42:37;101136.81;;;26.52;45.26
56241;BME280;42155;53.096;23.226;2023-09-07T07:44:37;101140.22;;;26.54;45.87
56241;BME280;42155;53.096;23.226;2023-09-07T07:46:38;101142.13;;;26.60;45.76
56241;BME280;42155;53.096;23.226;2023-09-07T07:48:38;101143.16;;;26.59;45.83
56241;BME280;42155;53.096;23.226;2023-09-07T07:50:39;101122.97;;;26.47;46.31
56241;BME280;42155;53.096;23.226;2023-09-07T07:52:39;101144.88;;;26.66;46.29
56241;BME280;42155;53.096;23.226;2023-09-07T07:54:39;101149.94;;;26.70;46.13
56241;BME280;42155;53.096;23.226;2023-09-07T07:56:40;101144.47;;;26.63;45.65
56241;BME280;42155;53.096;23.226;2023-09-07T07:58:40;101149.56;;;26.45;46.42
56241;BME280;42155;53.096;23.226;2023-09-07T08:00:41;101155.56;;;26.40;46.18
56241;BME280;42155;53.096;23.226;2023-09-07T08:02:41;101147.94;;;26.29;45.86
56241;BME280;42155;53.096;23.226;2023-09-07T08:04:41;101148.13;;;25.99;46.92
56241;BME280;42155;53.096;23.226;2023-09-07T08:06:42;101151.16;;;25.89;47.44
56241;BME280;42155;53.096;23.226;2023-09-07T08:08:42;101156.47;;;25.98;47.58
56241;BME280;42155;53.096;23.226;2023-09-07T08:10:42;101148.56;;;26.03;47.25
56241;BME280;42155;53.096;23.226;2023-09-07T08:12:43;101155.31;;;26.07;47.19
56241;BME280;42155;53.096;23.226;2023-09-07T08:14:43;101152.84;;;26.12;46.83
56241;BME280;42155;53.096;23.226;2023-09-07T08:16:43;101153.72;;;26.19;46.61
56241;BME280;42155;53.096;23.226;2023-09-07T08:18:44;101160.50;;;25.80;47.50
56241;BME280;42155;53.096;23.226;2023-09-07T08:20:44;101150.22;;;25.61;48.02
56241;BME280;42155;53.096;23.226;2023-09-07T08:22:45;101154.31;;;25.35;49.00
56241;BME280;42155;53.096;23.226;2023-09-07T08:24:45;101152.53;;;25.43;48.78
56241;BME280;42155;53.096;23.226;2023-09-07T08:26:45;101152.22;;;25.52;49.45
56241;BME280;42155;53.096;23.226;2023-09-07T08:28:46;101154.69;;;25.69;49.51
56241;BME280;42155;53.096;23.226;2023-09-07T08:30:48;101160.09;;;25.83;48.86
56241;BME280;42155;53.096;23.226;2023-09-07T08:32:48;101152.50;;;26.00;48.02
56241;BME280;42155;53.096;23.226;2023-09-07T08:34:48;101144.84;;;26.10;47.45
56241;BME280;42155;53.096;23.226;2023-09-07T08:36:49;101149.34;;;25.97;46.95
56241;BME280;42155;53.096;23.226;2023-09-07T08:38:52;101148.03;;;25.93;47.33
56241;BME280;42155;53.096;23.226;2023-09-07T08:40:54;101162.69;;;25.92;47.00
56241;BME280;42155;53.096;23.226;2023-09-07T08:42:54;101153.38;;;25.79;47.49
56241;BME280;42155;53.096;23.226;2023-09-07T08:44:57;101145.16;;;25.58;47.30
56241;BME280;42155;53.096;23.226;2023-09-07T08:47:02;101151.91;;;25.62;47.23
56241;BME280;42155;53.096;23.226;2023-09-07T08:49:03;101147.78;;;25.66;47.31
56241;BME280;42155;53.096;23.226;2023-09-07T08:51:03;101148.19;;;25.70;47.02
56241;BME280;42155;53.096;23.226;2023-09-07T08:53:05;101148.72;;;25.58;47.10
56241;BME280;42155;53.096;23.226;2023-09-07T08:55:06;101147.69;;;25.59;48.50
56241;BME280;42155;53.096;23.226;2023-09-07T08:57:07;101155.22;;;25.79;48.06
56241;BME280;42155;53.096;23.226;2023-09-07T08:59:07;101158.53;;;25.96;47.87
56241;BME280;42155;53.096;23.226;2023-09-07T09:01:08;101143.44;;;25.72;47.08
56241;BME280;42155;53.096;23.226;2023-09-07T09:03:09;101149.09;;;25.55;47.72
56241;BME280;42155;53.096;23.226;2023-09-07T09:05:10;101146.78;;;25.52;48.80
56241;BME280;42155;53.096;23.226;2023-09-07T09:07:10;101140.09;;;25.55;47.71
56241;BME280;42155;53.096;23.226;2023-09-07T09:09:10;101147.09;;;25.64;47.34
56241;BME280;42155;53.096;23.226;2023-09-07T09:11:11;101141.84;;;25.77;46.27
56241;BME280;42155;53.096;23.226;2023-09-07T09:13:11;101133.13;;;25.67;46.11
56241;BME280;42155;53.096;23.226;2023-09-07T09:15:12;101163.00;;;25.82;46.52
56241;BME280;42155;53.096;23.226;2023-09-07T09:17:13;101155.78;;;25.89;47.02
56241;BME280;42155;53.096;23.226;2023-09-07T09:19:13;101142.94;;;25.83;46.95
56241;BME280;42155;53.096;23.226;2023-09-07T09:21:14;101150.97;;;25.91;45.99
56241;BME280;42155;53.096;23.226;2023-09-07T09:23:15;101157.56;;;25.82;45.55
56241;BME280;42155;53.096;23.226;2023-09-07T09:25:15;101153.25;;;25.73;45.96
56241;BME280;42155;53.096;23.226;2023-09-07T09:27:16;101124.06;;;25.60;46.10
56241;BME280;42155;53.096;23.226;2023-09-07T09:29:16;101152.47;;;25.94;45.60
56241;BME280;42155;53.096;23.226;2023-09-07T09:31:17;101154.41;;;26.00;44.65
56241;BME280;42155;53.096;23.226;2023-09-07T09:33:19;101142.88;;;25.76;44.99
56241;BME280;42155;53.096;23.226;2023-09-07T09:35:20;101154.31;;;25.72;45.76
56241;BME280;42155;53.096;23.226;2023-09-07T09:37:20;101149.91;;;25.71;45.24
56241;BME280;42155;53.096;23.226;2023-09-07T09:39:24;101137.16;;;25.71;46.01
56241;BME280;42155;53.096;23.226;2023-09-07T09:41:24;101145.41;;;25.99;46.12
56241;BME280;42155;53.096;23.226;2023-09-07T09:43:26;101137.41;;;26.19;44.70
56241;BME280;42155;53.096;23.226;2023-09-07T09:45:26;101146.47;;;26.26;44.24
56241;BME280;42155;53.096;23.226;2023-09-07T09:47:27;101133.97;;;26.10;44.80
56241;BME280;42155;53.096;23.226;2023-09-07T09:49:29;101138.47;;;25.97;45.07
56241;BME280;42155;53.096;23.226;2023-09-07T09:51:31;101127.00;;;26.01;44.70
56241;BME280;42155;53.096;23.226;2023-09-07T09:53:31;101145.19;;;26.01;45.32
56241;BME280;42155;53.096;23.226;2023-09-07T09:55:35;101122.91;;;25.69;45.68
56241;BME280;42155;53.096;23.226;2023-09-07T09:57:36;101143.56;;;25.63;45.09
56241;BME280;42155;53.096;23.226;2023-09-07T09:59:36;101146.16;;;25.35;45.82
56241;BME280;42155;53.096;23.226;2023-09-07T10:01:43;101144.19;;;25.44;46.67
56241;BME280;42155;53.096;23.226;2023-09-07T10:03:46;101147.38;;;25.48;45.92
56241;BME280;42155;53.096;23.226;2023-09-07T10:05:47;101139.13;;;25.41;45.88
56241;BME280;42155;53.096;23.226;2023-09-07T10:07:48;101147.47;;;25.39;45.53
56241;BME280;42155;53.096;23.226;2023-09-07T10:09:49;101142.19;;;25.17;45.85
56241;BME280;42155;53.096;23.226;2023-09-07T10:11:53;101133.00;;;25.03;46.10
56241;BME280;42155;53.096;23.226;2023-09-07T10:13:57;101146.50;;;25.11;46.88
56241;BME280;42155;53.096;23.226;2023-09-07T10:16:06;101140.19;;;24.96;46.75
56241;BME280;42155;53.096;23.226;2023-09-07T10:18:16;101137.97;;;24.84;46.15
56241;BME280;42155;53.096;23.226;2023-09-07T10:20:17;101138.75;;;24.78;46.75
56241;BME280;42155;53.096;23.226;2023-09-07T10:22:21;101124.47;;;24.91;46.19